sensor_id;sensor_type;location;lat;lon;timestamp;pressure;altitude;pressure_sealevel;temperature;humidity
11808;BME280;5961;42.640;23.380;2023-04-04T00:01:55;92623.03;;;10.22;100.00
11808;BME280;5961;42.640;23.380;2023-04-04T00:04:22;92624.56;;;10.23;100.00
11808;BME280;5961;42.640;23.380;2023-04-04T00:06:49;92618.44;;;10.19;100.00
11808;BME280;5961;42.640;23.380;2023-04-04T00:09:16;92618.81;;;10.18;100.00
11808;BME280;5961;42.640;23.380;2023-04-04T00:11:44;92622.84;;;10.08;100.00
11808;BME280;5961;42.640;23.380;2023-04-04T00:14:11;92628.50;;;10.03;100.00
11808;BME280;5961;42.640;23.380;2023-04-04T00:16:38;92629.94;;;9.97;100.00
11808;BME280;5961;42.640;23.380;2023-04-04T00:19:05;92621.13;;;9.89;100.00
11808;BME280;5961;42.640;23.380;2023-04-04T00:21:32;92630.56;;;9.87;100.00
11808;BME280;5961;42.640;23.380;2023-04-04T00:23:59;92632.34;;;9.76;100.00
11808;BME280;5961;42.640;23.380;2023-04-04T00:26:25;92635.72;;;9.73;100.00
11808;BME280;5961;42.640;23.380;2023-04-04T00:28:53;92620.81;;;9.65;100.00
11808;BME280;5961;42.640;23.380;2023-04-04T00:31:20;92624.69;;;9.71;100.00
11808;BME280;5961;42.640;23.380;2023-04-04T00:33:47;92624.28;;;9.69;100.00
11808;BME280;5961;42.640;23.380;2023-04-04T00:36:14;92626.22;;;9.72;100.00
11808;BME280;5961;42.640;23.380;2023-04-04T00:38:41;92623.97;;;9.74;100.00
11808;BME280;5961;42.640;23.380;2023-04-04T00:41:08;92617.03;;;9.66;100.00
11808;BME280;5961;42.640;23.380;2023-04-04T00:43:36;92592.44;;;9.69;100.00
11808;BME280;5961;42.640;23.380;2023-04-04T00:46:06;92603.88;;;9.73;100.00
11808;BME280;5961;42.640;23.380;2023-04-04T00:48:33;92600.47;;;9.72;100.00
11808;BME280;5961;42.640;23.380;2023-04-04T00:51:00;92574.84;;;9.54;100.00
11808;BME280;5961;42.640;23.380;2023-04-04T00:53:27;92594.78;;;9.74;100.00
11808;BME280;5961;42.640;23.380;2023-04-04T00:55:54;92592.91;;;9.74;100.00
11808;BME280;5961;42.640;23.380;2023-04-04T00:58:21;92588.75;;;9.77;100.00
11808;BME280;5961;42.640;23.380;2023-04-04T01:00:48;92594.88;;;9.81;100.00
11808;BME280;5961;42.640;23.380;2023-04-04T01:03:16;92593.72;;;9.78;100.00
11808;BME280;5961;42.640;23.380;2023-04-04T01:05:44;92600.94;;;9.81;100.00
11808;BME280;5961;42.640;23.380;2023-04-04T01:08:11;92594.06;;;9.77;100.00
11808;BME280;5961;42.640;23.380;2023-04-04T01:10:38;92602.81;;;9.81;100.00
11808;BME280;5961;42.640;23.380;2023-04-04T01:13:05;92598.97;;;9.75;100.00
11808;BME280;5961;42.640;23.380;2023-04-04T01:15:32;92601.22;;;9.73;100.00
11808;BME280;5961;42.640;23.380;2023-04-04T01:18:00;92607.25;;;9.70;100.00
11808;BME280;5961;42.640;23.380;2023-04-04T01:20:29;92607.97;;;9.67;100.00
11808;BME280;5961;42.640;23.380;2023-04-04T01:22:58;92609.81;;;9.63;100.00
11808;BME280;5961;42.640;23.380;2023-04-04T01:25:29;92568.00;;;9.23;100.00
11808;BME280;5961;42.640;23.380;2023-04-04T01:27:57;92614.97;;;9.52;100.00
11808;BME280;5961;42.640;23.380;2023-04-04T01:30:27;92591.50;;;9.24;100.00
11808;BME280;5961;42.640;23.380;2023-04-04T01:32:59;92604.13;;;9.34;100.00
11808;BME280;5961;42.640;23.380;2023-04-04T01:35:31;92562.13;;;9.10;100.00
11808;BME280;5961;42.640;23.380;2023-04-04T01:38:12;92609.03;;;9.32;100.00
11808;BME280;5961;42.640;23.380;2023-04-04T01:40:43;92601.41;;;9.31;100.00
11808;BME280;5961;42.640;23.380;2023-04-04T01:43:13;92606.88;;;9.42;100.00
11808;BME280;5961;42.640;23.380;2023-04-04T01:45:40;92603.84;;;9.43;100.00
11808;BME280;5961;42.640;23.380;2023-04-04T01:48:07;92593.66;;;9.45;100.00
11808;BME280;5961;42.640;23.380;2023-04-04T01:50:35;92588.81;;;9.51;100.00
11808;BME280;5961;42.640;23.380;2023-04-04T01:53:02;92586.97;;;9.55;100.00
11808;BME280;5961;42.640;23.380;2023-04-04T01:55:28;92579.03;;;9.58;100.00
11808;BME280;5961;42.640;23.380;2023-04-04T01:57:57;92568.91;;;9.64;100.00
11808;BME280;5961;42.640;23.380;2023-04-04T02:00:23;92572.34;;;9.68;100.00
11808;BME280;5961;42.640;23.380;2023-04-04T02:02:50;92569.34;;;9.69;100.00
11808;BME280;5961;42.640;23.380;2023-04-04T02:05:17;92570.84;;;9.67;100.00
11808;BME280;5961;42.640;23.380;2023-04-04T02:07:46;92576.88;;;9.64;100.00
11808;BME280;5961;42.640;23.380;2023-04-04T02:10:13;92580.72;;;9.70;100.00
11808;BME280;5961;42.640;23.380;2023-04-04T02:12:40;92578.81;;;9.70;100.00
11808;BME280;5961;42.640;23.380;2023-04-04T02:15:08;92573.88;;;9.69;100.00
11808;BME280;5961;42.640;23.380;2023-04-04T02:17:35;92572.06;;;9.76;100.00
11808;BME280;5961;42.640;23.380;2023-04-04T02:20:02;92576.97;;;9.74;100.00
11808;BME280;5961;42.640;23.380;2023-04-04T02:22:29;92564.47;;;9.75;100.00
11808;BME280;5961;42.640;23.380;2023-04-04T02:24:56;92570.50;;;9.72;100.00
11808;BME280;5961;42.640;23.380;2023-04-04T02:27:24;92567.09;;;9.71;100.00
11808;BME280;5961;42.640;23.380;2023-04-04T02:29:51;92567.00;;;9.64;100.00
11808;BME280;5961;42.640;23.380;2023-04-04T02:32:21;92570.38;;;9.61;100.00
11808;BME280;5961;42.640;23.380;2023-04-04T02:34:48;92578.31;;;9.58;100.00
11808;BME280;5961;42.640;23.380;2023-04-04T02:37:15;92567.59;;;9.51;100.00
11808;BME280;5961;42.640;23.380;2023-04-04T02:39:42;92561.44;;;9.43;100.00
11808;BME280;5961;42.640;23.380;2023-04-04T02:42:09;92572.81;;;9.44;100.00
11808;BME280;5961;42.640;23.380;2023-04-04T02:44:35;92573.19;;;9.42;100.00
11808;BME280;5961;42.640;23.380;2023-04-04T02:47:02;92565.94;;;9.39;100.00
11808;BME280;5961;42.640;23.380;2023-04-04T02:49:30;92575.84;;;9.42;100.00
11808;BME280;5961;42.640;23.380;2023-04-04T02:51:57;92575.06;;;9.42;100.00
11808;BME280;5961;42.640;23.380;2023-04-04T02:54:23;92577.38;;;9.47;100.00
11808;BME280;5961;42.640;23.380;2023-04-04T02:56:50;92570.56;;;9.46;100.00
11808;BME280;5961;42.640;23.380;2023-04-04T02:59:17;92573.72;;;9.55;100.00
11808;BME280;5961;42.640;23.380;2023-04-04T03:01:44;92575.22;;;9.56;100.00
11808;BME280;5961;42.640;23.380;2023-04-04T03:04:11;92575.22;;;9.56;100.00
11808;BME280;5961;42.640;23.380;2023-04-04T03:06:39;92563.84;;;9.52;100.00
11808;BME280;5961;42.640;23.380;2023-04-04T03:09:06;92574.50;;;9.59;100.00
11808;BME280;5961;42.640;23.380;2023-04-04T03:11:33;92574.94;;;9.61;100.00
11808;BME280;5961;42.640;23.380;2023-04-04T03:14:00;92576.09;;;9.63;100.00
11808;BME280;5961;42.640;23.380;2023-04-04T03:16:27;92566.50;;;9.52;100.00
11808;BME280;5961;42.640;23.380;2023-04-04T03:18:54;92585.44;;;9.54;100.00
11808;BME280;5961;42.640;23.380;2023-04-04T03:21:21;92570.19;;;9.47;100.00
11808;BME280;5961;42.640;23.380;2023-04-04T03:23:49;92566.72;;;9.43;100.00
11808;BME280;5961;42.640;23.380;2023-04-04T03:26:16;92558.00;;;9.39;100.00
11808;BME280;5961;42.640;23.380;2023-04-04T03:28:44;92563.63;;;9.37;100.00
11808;BME280;5961;42.640;23.380;2023-04-04T03:31:11;92555.34;;;9.39;100.00
11808;BME280;5961;42.640;23.380;2023-04-04T03:33:38;92568.28;;;9.44;100.00
11808;BME280;5961;42.640;23.380;2023-04-04T03:36:09;92569.81;;;9.45;100.00
11808;BME280;5961;42.640;23.380;2023-04-04T03:38:36;92563.63;;;9.37;100.00
11808;BME280;5961;42.640;23.380;2023-04-04T03:41:04;92580.47;;;9.49;100.00
11808;BME280;5961;42.640;23.380;2023-04-04T03:43:31;92584.00;;;9.60;100.00
11808;BME280;5961;42.640;23.380;2023-04-04T03:45:59;92590.53;;;9.66;100.00
11808;BME280;5961;42.640;23.380;2023-04-04T03:48:26;92585.22;;;9.66;100.00
11808;BME280;5961;42.640;23.380;2023-04-04T03:50:53;92587.88;;;9.66;100.00
11808;BME280;5961;42.640;23.380;2023-04-04T03:53:20;92578.81;;;9.70;100.00
11808;BME280;5961;42.640;23.380;2023-04-04T03:55:46;92574.28;;;9.71;100.00
11808;BME280;5961;42.640;23.380;2023-04-04T03:58:14;92578.94;;;9.81;100.00
11808;BME280;5961;42.640;23.380;2023-04-04T04:00:41;92579.34;;;9.83;100.00
11808;BME280;5961;42.640;23.380;2023-04-04T04:03:08;92572.91;;;9.84;100.00
11808;BME280;5961;42.640;23.380;2023-04-04T04:05:34;92576.78;;;9.90;100.00
11808;BME280;5961;42.640;23.380;2023-04-04T04:08:01;92572.69;;;9.96;100.00
11808;BME280;5961;42.640;23.380;2023-04-04T04:10:28;92572.63;;;9.92;100.00
11808;BME280;5961;42.640;23.380;2023-04-04T04:12:55;92573.09;;;10.02;100.00
11808;BME280;5961;42.640;23.380;2023-04-04T04:15:23;92573.88;;;10.02;100.00
11808;BME280;5961;42.640;23.380;2023-04-04T04:17:49;92574.59;;;9.99;100.00
11808;BME280;5961;42.640;23.380;2023-04-04T04:20:16;92575.81;;;10.05;100.00
11808;BME280;5961;42.640;23.380;2023-04-04T04:22:44;92581.13;;;10.05;100.00
11808;BME280;5961;42.640;23.380;2023-04-04T04:25:11;92553.47;;;9.73;100.00
11808;BME280;5961;42.640;23.380;2023-04-04T04:27:38;92579.91;;;9.99;100.00
11808;BME280;5961;42.640;23.380;2023-04-04T04:30:07;92553.47;;;9.73;100.00
11808;BME280;5961;42.640;23.380;2023-04-04T04:32:35;92597.00;;;10.02;100.00
11808;BME280;5961;42.640;23.380;2023-04-04T04:35:03;92603.66;;;10.18;100.00
11808;BME280;5961;42.640;23.380;2023-04-04T04:37:29;92600.63;;;10.20;100.00
11808;BME280;5961;42.640;23.380;2023-04-04T04:39:56;92548.22;;;9.80;100.00
11808;BME280;5961;42.640;23.380;2023-04-04T04:42:24;92610.44;;;10.16;100.00
11808;BME280;5961;42.640;23.380;2023-04-04T04:44:51;92611.50;;;10.11;100.00
11808;BME280;5961;42.640;23.380;2023-04-04T04:47:18;92606.06;;;10.01;100.00
11808;BME280;5961;42.640;23.380;2023-04-04T04:49:46;92604.44;;;9.89;100.00
11808;BME280;5961;42.640;23.380;2023-04-04T04:52:14;92587.91;;;9.69;100.00
11808;BME280;5961;42.640;23.380;2023-04-04T04:54:40;92618.78;;;9.84;100.00
11808;BME280;5961;42.640;23.380;2023-04-04T04:57:08;92611.84;;;9.73;100.00
11808;BME280;5961;42.640;23.380;2023-04-04T04:59:35;92620.91;;;9.72;100.00
11808;BME280;5961;42.640;23.380;2023-04-04T05:02:02;92618.66;;;9.74;100.00
11808;BME280;5961;42.640;23.380;2023-04-04T05:04:29;92628.19;;;9.78;100.00
11808;BME280;5961;42.640;23.380;2023-04-04T05:06:57;92625.59;;;9.82;100.00
11808;BME280;5961;42.640;23.380;2023-04-04T05:09:24;92630.19;;;9.85;100.00
11808;BME280;5961;42.640;23.380;2023-04-04T05:11:51;92626.81;;;9.91;100.00
11808;BME280;5961;42.640;23.380;2023-04-04T05:14:18;92632.44;;;9.86;100.00
11808;BME280;5961;42.640;23.380;2023-04-04T05:16:45;92634.88;;;9.99;100.00
11808;BME280;5961;42.640;23.380;2023-04-04T05:19:12;92640.84;;;9.92;100.00
11808;BME280;5961;42.640;23.380;2023-04-04T05:21:39;92648.53;;;10.01;100.00
11808;BME280;5961;42.640;23.380;2023-04-04T05:24:07;92656.59;;;10.08;100.00
11808;BME280;5961;42.640;23.380;2023-04-04T05:26:34;92645.66;;;10.13;100.00
11808;BME280;5961;42.640;23.380;2023-04-04T05:29:01;92654.09;;;10.18;100.00
11808;BME280;5961;42.640;23.380;2023-04-04T05:31:27;92652.66;;;10.24;100.00
11808;BME280;5961;42.640;23.380;2023-04-04T05:33:54;92654.59;;;10.27;100.00
11808;BME280;5961;42.640;23.380;2023-04-04T05:36:21;92648.91;;;10.29;100.00
11808;BME280;5961;42.640;23.380;2023-04-04T05:38:48;92652.78;;;10.38;100.00
11808;BME280;5961;42.640;23.380;2023-04-04T05:41:16;92656.28;;;10.46;100.00
11808;BME280;5961;42.640;23.380;2023-04-04T05:43:43;92663.16;;;10.51;100.00
11808;BME280;5961;42.640;23.380;2023-04-04T05:46:09;92652.16;;;10.52;100.00
11808;BME280;5961;42.640;23.380;2023-04-04T05:48:36;92666.69;;;10.62;100.00
11808;BME280;5961;42.640;23.380;2023-04-04T05:51:03;92666.72;;;10.65;100.00
11808;BME280;5961;42.640;23.380;2023-04-04T05:53:29;92669.00;;;10.67;100.00
11808;BME280;5961;42.640;23.380;2023-04-04T05:55:56;92632.41;;;10.50;100.00
11808;BME280;5961;42.640;23.380;2023-04-04T05:58:25;92637.06;;;10.60;100.00
11808;BME280;5961;42.640;23.380;2023-04-04T06:00:51;92664.97;;;10.80;100.00
11808;BME280;5961;42.640;23.380;2023-04-04T06:03:18;92665.34;;;10.82;100.00
11808;BME280;5961;42.640;23.380;2023-04-04T06:05:49;92669.53;;;10.83;100.00
11808;BME280;5961;42.640;23.380;2023-04-04T06:08:16;92632.50;;;10.57;100.00
11808;BME280;5961;42.640;23.380;2023-04-04T06:10:43;92677.91;;;10.85;100.00
11808;BME280;5961;42.640;23.380;2023-04-04T06:13:10;92666.09;;;10.79;100.00
11808;BME280;5961;42.640;23.380;2023-04-04T06:15:38;92674.41;;;10.74;100.00
11808;BME280;5961;42.640;23.380;2023-04-04T06:18:05;92676.28;;;10.73;100.00
11808;BME280;5961;42.640;23.380;2023-04-04T06:20:32;92666.69;;;10.62;100.00
11808;BME280;5961;42.640;23.380;2023-04-04T06:22:58;92678.13;;;10.66;100.00
11808;BME280;5961;42.640;23.380;2023-04-04T06:25:28;92680.78;;;10.66;100.00
11808;BME280;5961;42.640;23.380;2023-04-04T06:27:56;92673.56;;;10.66;100.00
11808;BME280;5961;42.640;23.380;2023-04-04T06:30:23;92721.75;;;10.65;100.00
11808;BME280;5961;42.640;23.380;2023-04-04T06:32:52;92678.84;;;10.63;100.00
11808;BME280;5961;42.640;23.380;2023-04-04T06:35:19;92688.78;;;10.69;100.00
11808;BME280;5961;42.640;23.380;2023-04-04T06:37:45;92637.50;;;10.28;100.00
11808;BME280;5961;42.640;23.380;2023-04-04T06:40:12;92672.16;;;10.42;100.00
11808;BME280;5961;42.640;23.380;2023-04-04T06:42:47;92708.84;;;10.63;100.00
11808;BME280;5961;42.640;23.380;2023-04-04T06:45:14;92705.63;;;10.47;100.00
11808;BME280;5961;42.640;23.380;2023-04-04T06:47:42;92722.09;;;10.60;100.00
11808;BME280;5961;42.640;23.380;2023-04-04T06:50:11;92709.09;;;10.55;100.00
11808;BME280;5961;42.640;23.380;2023-04-04T06:52:37;92714.03;;;10.53;100.00
11808;BME280;5961;42.640;23.380;2023-04-04T06:55:05;92721.94;;;10.49;100.00
11808;BME280;5961;42.640;23.380;2023-04-04T06:57:32;92738.91;;;10.11;97.32
11808;BME280;5961;42.640;23.380;2023-04-04T06:59:59;92755.88;;;9.77;93.85
11808;BME280;5961;42.640;23.380;2023-04-04T07:02:26;92753.22;;;9.51;92.86
11808;BME280;5961;42.640;23.380;2023-04-04T07:04:53;92751.41;;;9.32;93.65
11808;BME280;5961;42.640;23.380;2023-04-04T07:07:21;92775.38;;;9.16;93.08
11808;BME280;5961;42.640;23.380;2023-04-04T07:09:49;92786.44;;;8.99;94.02
11808;BME280;5961;42.640;23.380;2023-04-04T07:12:15;92794.84;;;8.44;92.37
11808;BME280;5961;42.640;23.380;2023-04-04T07:14:42;92795.84;;;8.36;92.14
11808;BME280;5961;42.640;23.380;2023-04-04T07:17:09;92805.19;;;8.14;93.42
11808;BME280;5961;42.640;23.380;2023-04-04T07:19:35;92842.34;;;7.86;92.74
11808;BME280;5961;42.640;23.380;2023-04-04T07:22:02;92825.31;;;7.68;91.95
11808;BME280;5961;42.640;23.380;2023-04-04T07:24:30;92823.97;;;7.43;93.51
11808;BME280;5961;42.640;23.380;2023-04-04T07:26:57;92806.25;;;7.28;94.06
11808;BME280;5961;42.640;23.380;2023-04-04T07:29:24;92807.91;;;7.04;93.54
11808;BME280;5961;42.640;23.380;2023-04-04T07:31:50;92815.41;;;7.02;93.57
11808;BME280;5961;42.640;23.380;2023-04-04T07:34:17;92775.69;;;6.40;93.42
11808;BME280;5961;42.640;23.380;2023-04-04T07:36:44;92863.63;;;6.72;93.07
11808;BME280;5961;42.640;23.380;2023-04-04T07:39:11;92860.09;;;6.52;93.88
11808;BME280;5961;42.640;23.380;2023-04-04T07:41:39;92858.78;;;6.46;93.73
11808;BME280;5961;42.640;23.380;2023-04-04T07:44:06;92845.50;;;6.30;94.70
11808;BME280;5961;42.640;23.380;2023-04-04T07:46:33;92839.25;;;6.23;94.82
11808;BME280;5961;42.640;23.380;2023-04-04T07:48:59;92858.63;;;6.15;94.82
11808;BME280;5961;42.640;23.380;2023-04-04T07:51:26;92871.50;;;6.16;94.73
11808;BME280;5961;42.640;23.380;2023-04-04T07:53:54;92875.78;;;6.08;94.61
11808;BME280;5961;42.640;23.380;2023-04-04T07:56:21;92861.72;;;5.92;94.84
11808;BME280;5961;42.640;23.380;2023-04-04T07:58:49;92858.41;;;5.95;95.73
11808;BME280;5961;42.640;23.380;2023-04-04T08:01:16;92857.75;;;5.98;96.98
11808;BME280;5961;42.640;23.380;2023-04-04T08:03:42;92861.28;;;5.90;97.11
11808;BME280;5961;42.640;23.380;2023-04-04T08:06:09;92852.81;;;5.85;96.12
11808;BME280;5961;42.640;23.380;2023-04-04T08:08:36;92845.88;;;5.80;98.18
11808;BME280;5961;42.640;23.380;2023-04-04T08:11:03;92870.28;;;5.89;98.79
11808;BME280;5961;42.640;23.380;2023-04-04T08:13:29;92900.25;;;5.85;96.82
11808;BME280;5961;42.640;23.380;2023-04-04T08:15:58;92867.84;;;5.84;96.38
11808;BME280;5961;42.640;23.380;2023-04-04T08:18:24;92873.91;;;5.85;95.67
11808;BME280;5961;42.640;23.380;2023-04-04T08:20:51;92922.31;;;5.80;96.47
11808;BME280;5961;42.640;23.380;2023-04-04T08:23:18;92877.19;;;5.82;95.41
11808;BME280;5961;42.640;23.380;2023-04-04T08:25:45;92886.41;;;5.76;96.53
11808;BME280;5961;42.640;23.380;2023-04-04T08:28:12;92918.16;;;5.79;93.75
11808;BME280;5961;42.640;23.380;2023-04-04T08:30:40;92933.94;;;5.55;94.88
11808;BME280;5961;42.640;23.380;2023-04-04T08:33:08;92897.72;;;5.64;94.75
11808;BME280;5961;42.640;23.380;2023-04-04T08:35:35;92927.59;;;5.68;95.66
11808;BME280;5961;42.640;23.380;2023-04-04T08:38:02;92950.63;;;5.59;95.49
11808;BME280;5961;42.640;23.380;2023-04-04T08:40:30;92939.34;;;5.59;94.72
11808;BME280;5961;42.640;23.380;2023-04-04T08:42:57;92921.06;;;5.41;95.66
11808;BME280;5961;42.640;23.380;2023-04-04T08:45:27;92888.31;;;5.18;95.22
11808;BME280;5961;42.640;23.380;2023-04-04T08:47:57;92915.06;;;5.08;95.02
11808;BME280;5961;42.640;23.380;2023-04-04T08:50:26;92899.16;;;5.05;96.59
11808;BME280;5961;42.640;23.380;2023-04-04T08:52:55;92952.03;;;5.12;96.89
11808;BME280;5961;42.640;23.380;2023-04-04T08:55:24;92935.38;;;5.08;97.76
11808;BME280;5961;42.640;23.380;2023-04-04T08:57:51;92945.66;;;5.01;98.42
11808;BME280;5961;42.640;23.380;2023-04-04T09:00:18;92877.97;;;4.68;99.61
11808;BME280;5961;42.640;23.380;2023-04-04T09:02:53;92954.31;;;5.01;100.00
11808;BME280;5961;42.640;23.380;2023-04-04T09:05:21;92925.50;;;5.05;99.98
11808;BME280;5961;42.640;23.380;2023-04-04T09:07:52;92933.09;;;4.85;99.89
11808;BME280;5961;42.640;23.380;2023-04-04T09:10:19;92945.59;;;4.88;99.44
11808;BME280;5961;42.640;23.380;2023-04-04T09:12:47;92941.44;;;4.67;100.00
11808;BME280;5961;42.640;23.380;2023-04-04T09:15:16;92963.69;;;4.90;99.34
11808;BME280;5961;42.640;23.380;2023-04-04T09:17:43;92960.41;;;4.93;98.11
11808;BME280;5961;42.640;23.380;2023-04-04T09:20:32;92951.31;;;4.90;98.78
11808;BME280;5961;42.640;23.380;2023-04-04T09:23:00;92969.16;;;4.85;98.53
11808;BME280;5961;42.640;23.380;2023-04-04T09:25:28;92940.28;;;4.76;98.26
11808;BME280;5961;42.640;23.380;2023-04-04T09:27:54;92968.38;;;4.84;98.65
11808;BME280;5961;42.640;23.380;2023-04-04T09:30:22;92958.75;;;4.88;98.53
11808;BME280;5961;42.640;23.380;2023-04-04T09:32:49;93003.94;;;4.90;97.12
11808;BME280;5961;42.640;23.380;2023-04-04T09:35:15;92972.22;;;4.87;96.17
11808;BME280;5961;42.640;23.380;2023-04-04T09:37:42;92958.75;;;4.88;95.81
11808;BME280;5961;42.640;23.380;2023-04-04T09:40:13;92958.13;;;4.91;96.32
11808;BME280;5961;42.640;23.380;2023-04-04T09:42:40;92958.75;;;4.88;95.62
11808;BME280;5961;42.640;23.380;2023-04-04T09:45:07;92931.78;;;4.91;96.59
11808;BME280;5961;42.640;23.380;2023-04-04T09:47:38;92963.69;;;4.90;96.73
11808;BME280;5961;42.640;23.380;2023-04-04T09:50:07;92982.72;;;4.95;98.30
11808;BME280;5961;42.640;23.380;2023-04-04T09:52:33;92975.56;;;4.96;97.55
11808;BME280;5961;42.640;23.380;2023-04-04T09:55:03;92941.81;;;4.98;96.99
11808;BME280;5961;42.640;23.380;2023-04-04T09:57:33;92961.19;;;4.93;97.62
11808;BME280;5961;42.640;23.380;2023-04-04T10:00:04;92974.22;;;5.11;97.11
11808;BME280;5961;42.640;23.380;2023-04-04T10:02:36;92971.34;;;5.04;97.36
11808;BME280;5961;42.640;23.380;2023-04-04T10:05:03;92983.78;;;4.94;96.35
11808;BME280;5961;42.640;23.380;2023-04-04T10:07:30;92994.31;;;4.94;96.09
11808;BME280;5961;42.640;23.380;2023-04-04T10:10:00;92983.16;;;4.97;96.41
11808;BME280;5961;42.640;23.380;2023-04-04T10:12:29;92959.78;;;4.75;96.83
11808;BME280;5961;42.640;23.380;2023-04-04T10:14:57;92993.03;;;5.01;96.14
11808;BME280;5961;42.640;23.380;2023-04-04T10:17:29;92986.75;;;4.93;96.69
11808;BME280;5961;42.640;23.380;2023-04-04T10:19:57;92981.38;;;4.89;96.93
11808;BME280;5961;42.640;23.380;2023-04-04T10:22:25;92990.47;;;4.92;97.10
11808;BME280;5961;42.640;23.380;2023-04-04T10:24:52;92996.97;;;4.94;97.08
11808;BME280;5961;42.640;23.380;2023-04-04T10:27:20;92983.75;;;4.82;95.80
11808;BME280;5961;42.640;23.380;2023-04-04T10:29:47;93018.41;;;4.84;95.22
11808;BME280;5961;42.640;23.380;2023-04-04T10:32:16;93010.63;;;4.88;95.34
11808;BME280;5961;42.640;23.380;2023-04-04T10:34:51;93021.03;;;4.84;93.96
11808;BME280;5961;42.640;23.380;2023-04-04T10:37:24;93001.78;;;4.92;94.44
11808;BME280;5961;42.640;23.380;2023-04-04T10:39:56;93015.59;;;4.89;94.42
11808;BME280;5961;42.640;23.380;2023-04-04T10:42:25;93016.03;;;4.91;92.77
11808;BME280;5961;42.640;23.380;2023-04-04T10:44:58;93039.78;;;4.83;91.71
11808;BME280;5961;42.640;23.380;2023-04-04T10:47:28;93024.38;;;4.93;91.62
11808;BME280;5961;42.640;23.380;2023-04-04T10:49:56;93013.84;;;4.93;91.44
11808;BME280;5961;42.640;23.380;2023-04-04T10:52:23;92962.69;;;4.41;91.27
11808;BME280;5961;42.640;23.380;2023-04-04T10:54:55;93017.19;;;5.03;92.29
11808;BME280;5961;42.640;23.380;2023-04-04T10:57:23;93020.00;;;4.97;92.22
11808;BME280;5961;42.640;23.380;2023-04-04T10:59:57;93032.97;;;4.82;90.50
11808;BME280;5961;42.640;23.380;2023-04-04T11:02:45;92986.75;;;4.72;91.86
11808;BME280;5961;42.640;23.380;2023-04-04T11:05:16;93032.91;;;4.90;91.87
11808;BME280;5961;42.640;23.380;2023-04-04T11:07:44;93036.00;;;4.92;90.73
11808;BME280;5961;42.640;23.380;2023-04-04T11:10:13;92994.00;;;4.75;91.38
11808;BME280;5961;42.640;23.380;2023-04-04T11:12:44;93054.53;;;4.75;89.83
11808;BME280;5961;42.640;23.380;2023-04-04T11:15:12;93038.09;;;4.99;89.20
11808;BME280;5961;42.640;23.380;2023-04-04T11:17:41;93047.91;;;4.98;89.17
11808;BME280;5961;42.640;23.380;2023-04-04T11:20:10;93042.66;;;4.90;90.09
11808;BME280;5961;42.640;23.380;2023-04-04T11:22:40;93044.47;;;4.98;88.82
11808;BME280;5961;42.640;23.380;2023-04-04T11:25:30;93126.59;;;4.91;88.70
11808;BME280;5961;42.640;23.380;2023-04-04T11:27:57;93065.28;;;4.91;89.09
11808;BME280;5961;42.640;23.380;2023-04-04T11:30:24;93076.78;;;4.86;89.55
11808;BME280;5961;42.640;23.380;2023-04-04T11:32:56;93032.13;;;4.69;89.83
11808;BME280;5961;42.640;23.380;2023-04-04T11:35:25;93068.25;;;4.89;90.40
11808;BME280;5961;42.640;23.380;2023-04-04T11:37:59;93029.56;;;4.81;90.76
11808;BME280;5961;42.640;23.380;2023-04-04T11:40:36;93050.81;;;4.97;91.26
11808;BME280;5961;42.640;23.380;2023-04-04T11:43:08;93084.91;;;4.93;90.72
11808;BME280;5961;42.640;23.380;2023-04-04T11:45:35;93047.63;;;4.91;91.47
11808;BME280;5961;42.640;23.380;2023-04-04T11:48:04;93063.09;;;4.93;91.76
11808;BME280;5961;42.640;23.380;2023-04-04T11:50:37;93031.53;;;4.64;91.68
11808;BME280;5961;42.640;23.380;2023-04-04T11:53:05;93050.63;;;4.81;91.49
11808;BME280;5961;42.640;23.380;2023-04-04T11:55:32;93061.63;;;4.83;92.18
11808;BME280;5961;42.640;23.380;2023-04-04T11:58:07;93063.69;;;4.69;92.59
11808;BME280;5961;42.640;23.380;2023-04-04T12:00:35;93006.56;;;4.49;92.95
11808;BME280;5961;42.640;23.380;2023-04-04T12:03:05;93049.25;;;4.75;94.21
11808;BME280;5961;42.640;23.380;2023-04-04T12:05:36;93027.78;;;4.73;94.95
11808;BME280;5961;42.640;23.380;2023-04-04T12:08:05;93054.81;;;4.82;94.31
11808;BME280;5961;42.640;23.380;2023-04-04T12:10:33;93052.22;;;4.74;94.19
11808;BME280;5961;42.640;23.380;2023-04-04T12:13:04;93077.78;;;4.73;93.83
11808;BME280;5961;42.640;23.380;2023-04-04T12:15:32;93086.50;;;4.65;93.63
11808;BME280;5961;42.640;23.380;2023-04-04T12:17:59;93041.28;;;4.63;93.51
11808;BME280;5961;42.640;23.380;2023-04-04T12:20:26;93046.16;;;4.53;93.17
11808;BME280;5961;42.640;23.380;2023-04-04T12:22:56;93043.38;;;4.49;93.11
11808;BME280;5961;42.640;23.380;2023-04-04T12:25:23;93071.31;;;4.33;93.36
11808;BME280;5961;42.640;23.380;2023-04-04T12:27:53;93001.22;;;4.08;93.65
11808;BME280;5961;42.640;23.380;2023-04-04T12:30:20;93101.16;;;4.37;94.81
11808;BME280;5961;42.640;23.380;2023-04-04T12:32:48;93046.97;;;4.07;94.90
11808;BME280;5961;42.640;23.380;2023-04-04T12:35:16;93058.53;;;4.23;94.53
11808;BME280;5961;42.640;23.380;2023-04-04T12:37:58;93090.72;;;4.20;95.31
11808;BME280;5961;42.640;23.380;2023-04-04T12:40:30;93077.72;;;4.15;96.00
11808;BME280;5961;42.640;23.380;2023-04-04T12:42:58;93088.09;;;4.11;96.73
11808;BME280;5961;42.640;23.380;2023-04-04T12:45:25;93046.31;;;3.80;97.17
11808;BME280;5961;42.640;23.380;2023-04-04T12:47:52;93058.13;;;4.04;97.96
11808;BME280;5961;42.640;23.380;2023-04-04T12:50:20;93048.69;;;4.03;97.39
11808;BME280;5961;42.640;23.380;2023-04-04T12:52:50;93091.72;;;3.90;97.63
11808;BME280;5961;42.640;23.380;2023-04-04T12:55:21;93055.97;;;3.97;98.21
11808;BME280;5961;42.640;23.380;2023-04-04T12:57:49;93085.72;;;3.80;98.38
11808;BME280;5961;42.640;23.380;2023-04-04T13:00:18;93083.38;;;3.87;98.89
11808;BME280;5961;42.640;23.380;2023-04-04T13:02:48;93126.19;;;3.88;99.05
11808;BME280;5961;42.640;23.380;2023-04-04T13:05:16;93115.25;;;3.77;98.43
11808;BME280;5961;42.640;23.380;2023-04-04T13:07:46;93099.81;;;3.67;97.97